sensor_id;sensor_type;location;lat;lon;timestamp;P1;durP1;ratioP1;P2;durP2;ratioP2
43988;SDS011;54163;51.386;7.178;2022-07-06T00:00:13;521.67;;;100.50;;
43988;SDS011;54163;51.386;7.178;2022-07-06T00:02:41;430.53;;;78.70;;
43988;SDS011;54163;51.386;7.178;2022-07-06T00:05:08;440.70;;;82.80;;
43988;SDS011;54163;51.386;7.178;2022-07-06T00:07:36;437.93;;;79.60;;
43988;SDS011;54163;51.386;7.178;2022-07-06T00:10:03;513.20;;;96.93;;
43988;SDS011;54163;51.386;7.178;2022-07-06T00:12:31;428.90;;;77.40;;
43988;SDS011;54163;51.386;7.178;2022-07-06T00:14:58;444.33;;;86.57;;
43988;SDS011;54163;51.386;7.178;2022-07-06T00:17:25;429.70;;;78.67;;
43988;SDS011;54163;51.386;7.178;2022-07-06T00:19:51;513.63;;;97.70;;
43988;SDS011;54163;51.386;7.178;2022-07-06T00:22:18;430.00;;;77.97;;
43988;SDS011;54163;51.386;7.178;2022-07-06T00:24:47;442.67;;;85.87;;
43988;SDS011;54163;51.386;7.178;2022-07-06T00:27:13;425.20;;;78.53;;
43988;SDS011;54163;51.386;7.178;2022-07-06T00:29:40;510.17;;;94.37;;
43988;SDS011;54163;51.386;7.178;2022-07-06T00:32:09;521.10;;;97.77;;
43988;SDS011;54163;51.386;7.178;2022-07-06T00:34:37;523.60;;;99.00;;
43988;SDS011;54163;51.386;7.178;2022-07-06T00:37:05;518.37;;;97.33;;
43988;SDS011;54163;51.386;7.178;2022-07-06T00:39:33;523.20;;;100.87;;
43988;SDS011;54163;51.386;7.178;2022-07-06T00:42:01;525.70;;;104.23;;
43988;SDS011;54163;51.386;7.178;2022-07-06T00:44:28;415.50;;;75.20;;
43988;SDS011;54163;51.386;7.178;2022-07-06T00:46:56;431.27;;;78.17;;
43988;SDS011;54163;51.386;7.178;2022-07-06T00:49:23;522.07;;;98.97;;
43988;SDS011;54163;51.386;7.178;2022-07-06T00:52:07;433.47;;;77.77;;
43988;SDS011;54163;51.386;7.178;2022-07-06T00:54:34;437.87;;;79.33;;
43988;SDS011;54163;51.386;7.178;2022-07-06T00:57:05;427.30;;;79.77;;
43988;SDS011;54163;51.386;7.178;2022-07-06T00:59:32;434.70;;;88.13;;
43988;SDS011;54163;51.386;7.178;2022-07-06T01:02:00;431.10;;;78.67;;
43988;SDS011;54163;51.386;7.178;2022-07-06T01:04:26;521.00;;;100.03;;
43988;SDS011;54163;51.386;7.178;2022-07-06T01:06:53;503.23;;;94.20;;
43988;SDS011;54163;51.386;7.178;2022-07-06T01:09:22;417.83;;;78.63;;
43988;SDS011;54163;51.386;7.178;2022-07-06T01:11:49;431.97;;;78.87;;
43988;SDS011;54163;51.386;7.178;2022-07-06T01:14:20;507.83;;;96.33;;
43988;SDS011;54163;51.386;7.178;2022-07-06T01:16:47;437.73;;;81.83;;
43988;SDS011;54163;51.386;7.178;2022-07-06T01:19:15;517.50;;;98.57;;
43988;SDS011;54163;51.386;7.178;2022-07-06T01:21:44;425.70;;;77.43;;
43988;SDS011;54163;51.386;7.178;2022-07-06T01:24:11;410.93;;;76.00;;
43988;SDS011;54163;51.386;7.178;2022-07-06T01:26:38;501.97;;;93.90;;
43988;SDS011;54163;51.386;7.178;2022-07-06T01:29:05;433.93;;;80.20;;
43988;SDS011;54163;51.386;7.178;2022-07-06T01:31:32;407.93;;;76.73;;
43988;SDS011;54163;51.386;7.178;2022-07-06T01:33:59;433.33;;;77.63;;
43988;SDS011;54163;51.386;7.178;2022-07-06T01:36:26;430.97;;;78.80;;
43988;SDS011;54163;51.386;7.178;2022-07-06T01:38:55;505.43;;;93.23;;
43988;SDS011;54163;51.386;7.178;2022-07-06T01:41:24;458.30;;;86.30;;
43988;SDS011;54163;51.386;7.178;2022-07-06T01:43:51;515.97;;;95.63;;
43988;SDS011;54163;51.386;7.178;2022-07-06T01:46:18;409.00;;;79.90;;
43988;SDS011;54163;51.386;7.178;2022-07-06T01:48:46;434.97;;;82.37;;
43988;SDS011;54163;51.386;7.178;2022-07-06T01:51:13;427.80;;;81.43;;
43988;SDS011;54163;51.386;7.178;2022-07-06T01:53:42;431.87;;;79.83;;
43988;SDS011;54163;51.386;7.178;2022-07-06T01:56:12;404.70;;;80.80;;
43988;SDS011;54163;51.386;7.178;2022-07-06T01:58:40;436.40;;;83.63;;
43988;SDS011;54163;51.386;7.178;2022-07-06T02:01:08;435.27;;;83.77;;
43988;SDS011;54163;51.386;7.178;2022-07-06T02:03:36;422.73;;;75.80;;
43988;SDS011;54163;51.386;7.178;2022-07-06T02:06:04;426.43;;;79.70;;
43988;SDS011;54163;51.386;7.178;2022-07-06T02:08:32;425.57;;;76.77;;
43988;SDS011;54163;51.386;7.178;2022-07-06T02:11:00;431.43;;;78.93;;
43988;SDS011;54163;51.386;7.178;2022-07-06T02:13:30;433.07;;;84.60;;
43988;SDS011;54163;51.386;7.178;2022-07-06T02:15:59;498.40;;;92.83;;
43988;SDS011;54163;51.386;7.178;2022-07-06T02:18:27;423.30;;;77.17;;
43988;SDS011;54163;51.386;7.178;2022-07-06T02:20:56;498.70;;;92.87;;
43988;SDS011;54163;51.386;7.178;2022-07-06T02:23:25;495.33;;;92.47;;
43988;SDS011;54163;51.386;7.178;2022-07-06T02:25:53;426.97;;;82.27;;
43988;SDS011;54163;51.386;7.178;2022-07-06T02:28:21;497.10;;;95.23;;
43988;SDS011;54163;51.386;7.178;2022-07-06T02:30:49;496.43;;;93.13;;
43988;SDS011;54163;51.386;7.178;2022-07-06T02:33:16;419.37;;;74.63;;
43988;SDS011;54163;51.386;7.178;2022-07-06T02:35:44;493.73;;;90.83;;
43988;SDS011;54163;51.386;7.178;2022-07-06T02:38:12;420.13;;;76.67;;
43988;SDS011;54163;51.386;7.178;2022-07-06T02:40:39;432.90;;;78.13;;
43988;SDS011;54163;51.386;7.178;2022-07-06T02:43:06;430.33;;;77.83;;
43988;SDS011;54163;51.386;7.178;2022-07-06T02:45:35;505.40;;;95.87;;
43988;SDS011;54163;51.386;7.178;2022-07-06T02:48:04;428.47;;;80.67;;
43988;SDS011;54163;51.386;7.178;2022-07-06T02:50:33;429.00;;;77.50;;
43988;SDS011;54163;51.386;7.178;2022-07-06T02:53:00;494.83;;;91.97;;
43988;SDS011;54163;51.386;7.178;2022-07-06T02:55:27;430.77;;;81.07;;
43988;SDS011;54163;51.386;7.178;2022-07-06T02:57:54;494.33;;;91.77;;
43988;SDS011;54163;51.386;7.178;2022-07-06T03:00:22;419.70;;;76.87;;
43988;SDS011;54163;51.386;7.178;2022-07-06T03:02:51;421.57;;;76.17;;
43988;SDS011;54163;51.386;7.178;2022-07-06T03:05:20;423.30;;;77.37;;
43988;SDS011;54163;51.386;7.178;2022-07-06T03:07:47;492.93;;;90.33;;
43988;SDS011;54163;51.386;7.178;2022-07-06T03:10:15;491.67;;;91.03;;
43988;SDS011;54163;51.386;7.178;2022-07-06T03:12:44;442.90;;;81.70;;
43988;SDS011;54163;51.386;7.178;2022-07-06T03:15:10;447.77;;;84.37;;
43988;SDS011;54163;51.386;7.178;2022-07-06T03:17:40;427.30;;;77.00;;
43988;SDS011;54163;51.386;7.178;2022-07-06T03:20:07;419.43;;;78.93;;
43988;SDS011;54163;51.386;7.178;2022-07-06T03:22:36;418.40;;;77.17;;
43988;SDS011;54163;51.386;7.178;2022-07-06T03:25:04;429.33;;;80.10;;
43988;SDS011;54163;51.386;7.178;2022-07-06T03:27:33;395.27;;;77.53;;
43988;SDS011;54163;51.386;7.178;2022-07-06T03:30:02;432.10;;;82.20;;
43988;SDS011;54163;51.386;7.178;2022-07-06T03:32:31;415.03;;;74.40;;
43988;SDS011;54163;51.386;7.178;2022-07-06T03:35:00;425.07;;;77.63;;
43988;SDS011;54163;51.386;7.178;2022-07-06T03:37:27;428.13;;;80.17;;
43988;SDS011;54163;51.386;7.178;2022-07-06T03:39:56;416.97;;;76.53;;
43988;SDS011;54163;51.386;7.178;2022-07-06T03:42:23;419.10;;;77.50;;
43988;SDS011;54163;51.386;7.178;2022-07-06T03:44:51;427.83;;;79.00;;
43988;SDS011;54163;51.386;7.178;2022-07-06T03:47:18;425.47;;;77.27;;
43988;SDS011;54163;51.386;7.178;2022-07-06T03:49:46;428.67;;;77.40;;
43988;SDS011;54163;51.386;7.178;2022-07-06T03:52:13;424.90;;;77.07;;
43988;SDS011;54163;51.386;7.178;2022-07-06T03:54:47;411.03;;;74.77;;
43988;SDS011;54163;51.386;7.178;2022-07-06T03:57:21;404.13;;;72.70;;
43988;SDS011;54163;51.386;7.178;2022-07-06T03:59:48;428.73;;;77.50;;
43988;SDS011;54163;51.386;7.178;2022-07-06T04:02:16;427.00;;;78.47;;
43988;SDS011;54163;51.386;7.178;2022-07-06T04:04:43;429.03;;;77.60;;
43988;SDS011;54163;51.386;7.178;2022-07-06T04:07:11;428.80;;;80.00;;
43988;SDS011;54163;51.386;7.178;2022-07-06T04:09:39;410.50;;;78.13;;
43988;SDS011;54163;51.386;7.178;2022-07-06T04:12:07;491.73;;;92.33;;
43988;SDS011;54163;51.386;7.178;2022-07-06T04:14:36;490.13;;;91.30;;
43988;SDS011;54163;51.386;7.178;2022-07-06T04:17:03;421.97;;;76.90;;
43988;SDS011;54163;51.386;7.178;2022-07-06T04:19:52;424.57;;;77.63;;
43988;SDS011;54163;51.386;7.178;2022-07-06T04:22:20;410.77;;;75.37;;
43988;SDS011;54163;51.386;7.178;2022-07-06T04:24:47;493.23;;;90.23;;
43988;SDS011;54163;51.386;7.178;2022-07-06T04:27:14;431.90;;;78.47;;
43988;SDS011;54163;51.386;7.178;2022-07-06T04:29:44;488.30;;;91.03;;
43988;SDS011;54163;51.386;7.178;2022-07-06T04:32:11;422.97;;;81.13;;
43988;SDS011;54163;51.386;7.178;2022-07-06T04:34:38;496.90;;;93.63;;
43988;SDS011;54163;51.386;7.178;2022-07-06T04:37:06;495.30;;;92.93;;
43988;SDS011;54163;51.386;7.178;2022-07-06T04:39:33;397.27;;;73.73;;
43988;SDS011;54163;51.386;7.178;2022-07-06T04:42:01;493.07;;;91.87;;
43988;SDS011;54163;51.386;7.178;2022-07-06T04:44:28;428.40;;;78.90;;
43988;SDS011;54163;51.386;7.178;2022-07-06T04:46:57;492.57;;;93.57;;
43988;SDS011;54163;51.386;7.178;2022-07-06T04:49:24;430.23;;;82.27;;
43988;SDS011;54163;51.386;7.178;2022-07-06T04:51:52;418.80;;;77.40;;
43988;SDS011;54163;51.386;7.178;2022-07-06T04:54:19;418.60;;;76.83;;
43988;SDS011;54163;51.386;7.178;2022-07-06T04:56:46;430.90;;;79.30;;
43988;SDS011;54163;51.386;7.178;2022-07-06T04:59:14;414.77;;;76.83;;
43988;SDS011;54163;51.386;7.178;2022-07-06T05:01:43;490.23;;;89.10;;
43988;SDS011;54163;51.386;7.178;2022-07-06T05:04:11;490.90;;;93.57;;
43988;SDS011;54163;51.386;7.178;2022-07-06T05:06:39;429.87;;;80.47;;
43988;SDS011;54163;51.386;7.178;2022-07-06T05:09:06;421.70;;;78.23;;
43988;SDS011;54163;51.386;7.178;2022-07-06T05:11:34;407.23;;;77.07;;
43988;SDS011;54163;51.386;7.178;2022-07-06T05:14:04;502.07;;;93.53;;
43988;SDS011;54163;51.386;7.178;2022-07-06T05:16:31;417.60;;;81.60;;
43988;SDS011;54163;51.386;7.178;2022-07-06T05:18:59;421.23;;;77.77;;
43988;SDS011;54163;51.386;7.178;2022-07-06T05:21:29;499.13;;;94.17;;
43988;SDS011;54163;51.386;7.178;2022-07-06T05:23:56;420.37;;;78.20;;
43988;SDS011;54163;51.386;7.178;2022-07-06T05:26:23;435.57;;;82.77;;
43988;SDS011;54163;51.386;7.178;2022-07-06T05:28:51;427.17;;;77.27;;
43988;SDS011;54163;51.386;7.178;2022-07-06T05:31:20;431.90;;;79.50;;
43988;SDS011;54163;51.386;7.178;2022-07-06T05:33:48;425.20;;;76.57;;
43988;SDS011;54163;51.386;7.178;2022-07-06T05:36:15;492.17;;;93.10;;
43988;SDS011;54163;51.386;7.178;2022-07-06T05:38:44;490.93;;;91.83;;
43988;SDS011;54163;51.386;7.178;2022-07-06T05:41:11;419.53;;;76.50;;
43988;SDS011;54163;51.386;7.178;2022-07-06T05:43:39;419.50;;;76.53;;
43988;SDS011;54163;51.386;7.178;2022-07-06T05:46:06;428.43;;;79.47;;
43988;SDS011;54163;51.386;7.178;2022-07-06T05:48:35;428.17;;;81.17;;
43988;SDS011;54163;51.386;7.178;2022-07-06T05:51:23;414.23;;;75.23;;
43988;SDS011;54163;51.386;7.178;2022-07-06T05:53:52;429.93;;;81.27;;
43988;SDS011;54163;51.386;7.178;2022-07-06T05:56:20;426.73;;;76.50;;
43988;SDS011;54163;51.386;7.178;2022-07-06T05:58:48;408.10;;;75.37;;
43988;SDS011;54163;51.386;7.178;2022-07-06T06:01:15;492.23;;;91.70;;
43988;SDS011;54163;51.386;7.178;2022-07-06T06:03:48;444.57;;;80.47;;
43988;SDS011;54163;51.386;7.178;2022-07-06T06:06:16;338.07;;;62.87;;
43988;SDS011;54163;51.386;7.178;2022-07-06T06:08:43;417.30;;;77.83;;
43988;SDS011;54163;51.386;7.178;2022-07-06T06:11:11;405.70;;;74.53;;
43988;SDS011;54163;51.386;7.178;2022-07-06T06:13:40;496.93;;;98.53;;
43988;SDS011;54163;51.386;7.178;2022-07-06T06:16:07;495.43;;;91.53;;
43988;SDS011;54163;51.386;7.178;2022-07-06T06:18:34;424.43;;;79.67;;
43988;SDS011;54163;51.386;7.178;2022-07-06T06:21:02;424.53;;;78.00;;
43988;SDS011;54163;51.386;7.178;2022-07-06T06:23:29;494.00;;;92.97;;
43988;SDS011;54163;51.386;7.178;2022-07-06T06:25:56;437.60;;;79.37;;
43988;SDS011;54163;51.386;7.178;2022-07-06T06:28:24;417.97;;;77.87;;
43988;SDS011;54163;51.386;7.178;2022-07-06T06:30:51;433.83;;;83.70;;
43988;SDS011;54163;51.386;7.178;2022-07-06T06:33:19;434.37;;;81.07;;
43988;SDS011;54163;51.386;7.178;2022-07-06T06:35:47;406.43;;;85.83;;
43988;SDS011;54163;51.386;7.178;2022-07-06T06:38:15;411.07;;;75.50;;
43988;SDS011;54163;51.386;7.178;2022-07-06T06:40:43;481.87;;;101.90;;
43988;SDS011;54163;51.386;7.178;2022-07-06T06:43:10;415.27;;;76.87;;
43988;SDS011;54163;51.386;7.178;2022-07-06T06:45:59;437.73;;;80.27;;
43988;SDS011;54163;51.386;7.178;2022-07-06T06:48:26;520.07;;;99.50;;
43988;SDS011;54163;51.386;7.178;2022-07-06T06:50:53;505.80;;;98.17;;
43988;SDS011;54163;51.386;7.178;2022-07-06T06:53:20;441.90;;;84.03;;
43988;SDS011;54163;51.386;7.178;2022-07-06T06:55:47;404.87;;;87.60;;
43988;SDS011;54163;51.386;7.178;2022-07-06T06:58:14;437.67;;;81.90;;
43988;SDS011;54163;51.386;7.178;2022-07-06T07:00:41;556.77;;;117.50;;
43988;SDS011;54163;51.386;7.178;2022-07-06T07:03:10;428.17;;;77.80;;
43988;SDS011;54163;51.386;7.178;2022-07-06T07:05:37;449.30;;;102.20;;
43988;SDS011;54163;51.386;7.178;2022-07-06T07:08:05;442.83;;;82.43;;
43988;SDS011;54163;51.386;7.178;2022-07-06T07:10:32;440.87;;;82.63;;
43988;SDS011;54163;51.386;7.178;2022-07-06T07:12:59;440.23;;;81.17;;
43988;SDS011;54163;51.386;7.178;2022-07-06T07:15:26;451.83;;;98.67;;
43988;SDS011;54163;51.386;7.178;2022-07-06T07:17:53;431.63;;;80.07;;
43988;SDS011;54163;51.386;7.178;2022-07-06T07:20:22;446.60;;;89.97;;
43988;SDS011;54163;51.386;7.178;2022-07-06T07:22:48;442.07;;;84.87;;
43988;SDS011;54163;51.386;7.178;2022-07-06T07:25:16;440.43;;;83.23;;
43988;SDS011;54163;51.386;7.178;2022-07-06T07:27:43;517.77;;;99.37;;
43988;SDS011;54163;51.386;7.178;2022-07-06T07:30:10;530.60;;;108.10;;
43988;SDS011;54163;51.386;7.178;2022-07-06T07:32:38;425.77;;;78.67;;
43988;SDS011;54163;51.386;7.178;2022-07-06T07:35:05;433.80;;;80.43;;
43988;SDS011;54163;51.386;7.178;2022-07-06T07:37:34;434.47;;;80.47;;
43988;SDS011;54163;51.386;7.178;2022-07-06T07:40:01;439.50;;;83.27;;
43988;SDS011;54163;51.386;7.178;2022-07-06T07:42:29;440.07;;;81.80;;
43988;SDS011;54163;51.386;7.178;2022-07-06T07:44:57;446.37;;;84.77;;
43988;SDS011;54163;51.386;7.178;2022-07-06T07:47:23;532.17;;;107.60;;
43988;SDS011;54163;51.386;7.178;2022-07-06T07:49:50;441.90;;;84.33;;
43988;SDS011;54163;51.386;7.178;2022-07-06T07:52:17;452.33;;;83.07;;
43988;SDS011;54163;51.386;7.178;2022-07-06T07:54:45;536.00;;;110.63;;
43988;SDS011;54163;51.386;7.178;2022-07-06T07:57:12;529.57;;;105.87;;
43988;SDS011;54163;51.386;7.178;2022-07-06T07:59:39;415.73;;;81.00;;
43988;SDS011;54163;51.386;7.178;2022-07-06T08:02:07;450.23;;;87.37;;
43988;SDS011;54163;51.386;7.178;2022-07-06T08:04:34;517.00;;;100.33;;
43988;SDS011;54163;51.386;7.178;2022-07-06T08:07:02;437.17;;;82.00;;
43988;SDS011;54163;51.386;7.178;2022-07-06T08:09:29;532.27;;;104.80;;
43988;SDS011;54163;51.386;7.178;2022-07-06T08:11:57;441.83;;;83.73;;
43988;SDS011;54163;51.386;7.178;2022-07-06T08:14:25;449.50;;;81.60;;
43988;SDS011;54163;51.386;7.178;2022-07-06T08:16:52;517.23;;;100.13;;
43988;SDS011;54163;51.386;7.178;2022-07-06T08:19:19;520.27;;;103.07;;
43988;SDS011;54163;51.386;7.178;2022-07-06T08:21:46;445.70;;;85.40;;
43988;SDS011;54163;51.386;7.178;2022-07-06T08:24:13;435.87;;;82.47;;
43988;SDS011;54163;51.386;7.178;2022-07-06T08:26:40;559.57;;;126.20;;
43988;SDS011;54163;51.386;7.178;2022-07-06T08:29:08;539.37;;;116.90;;
43988;SDS011;54163;51.386;7.178;2022-07-06T08:31:35;521.13;;;103.70;;
43988;SDS011;54163;51.386;7.178;2022-07-06T08:34:03;447.90;;;85.50;;
43988;SDS011;54163;51.386;7.178;2022-07-06T08:36:30;441.87;;;88.00;;
43988;SDS011;54163;51.386;7.178;2022-07-06T08:38:58;440.03;;;82.07;;
43988;SDS011;54163;51.386;7.178;2022-07-06T08:41:26;434.37;;;81.70;;
43988;SDS011;54163;51.386;7.178;2022-07-06T08:43:56;528.23;;;107.03;;
43988;SDS011;54163;51.386;7.178;2022-07-06T08:46:25;444.63;;;85.57;;
43988;SDS011;54163;51.386;7.178;2022-07-06T08:48:55;515.97;;;98.90;;
43988;SDS011;54163;51.386;7.178;2022-07-06T08:51:24;433.97;;;80.40;;
43988;SDS011;54163;51.386;7.178;2022-07-06T08:53:51;515.93;;;100.50;;
43988;SDS011;54163;51.386;7.178;2022-07-06T08:56:19;433.37;;;81.23;;
43988;SDS011;54163;51.386;7.178;2022-07-06T08:58:46;442.17;;;85.93;;
43988;SDS011;54163;51.386;7.178;2022-07-06T09:01:14;433.20;;;83.73;;
43988;SDS011;54163;51.386;7.178;2022-07-06T09:03:44;437.27;;;84.73;;
43988;SDS011;54163;51.386;7.178;2022-07-06T09:06:14;430.90;;;80.03;;
43988;SDS011;54163;51.386;7.178;2022-07-06T09:08:43;474.70;;;89.67;;
43988;SDS011;54163;51.386;7.178;2022-07-06T09:11:10;518.43;;;98.17;;
43988;SDS011;54163;51.386;7.178;2022-07-06T09:13:37;533.07;;;109.93;;
43988;SDS011;54163;51.386;7.178;2022-07-06T09:16:11;444.07;;;83.67;;
43988;SDS011;54163;51.386;7.178;2022-07-06T09:18:39;431.80;;;82.60;;
43988;SDS011;54163;51.386;7.178;2022-07-06T09:21:11;448.17;;;86.57;;
43988;SDS011;54163;51.386;7.178;2022-07-06T09:23:38;537.47;;;107.73;;
43988;SDS011;54163;51.386;7.178;2022-07-06T09:26:05;460.83;;;106.17;;
43988;SDS011;54163;51.386;7.178;2022-07-06T09:28:42;523.70;;;99.90;;
43988;SDS011;54163;51.386;7.178;2022-07-06T09:31:10;535.13;;;103.87;;
43988;SDS011;54163;51.386;7.178;2022-07-06T09:33:37;427.17;;;84.17;;
43988;SDS011;54163;51.386;7.178;2022-07-06T09:36:05;538.27;;;106.60;;
43988;SDS011;54163;51.386;7.178;2022-07-06T09:38:34;436.00;;;80.67;;
43988;SDS011;54163;51.386;7.178;2022-07-06T09:41:01;448.33;;;87.13;;
43988;SDS011;54163;51.386;7.178;2022-07-06T09:43:28;439.53;;;84.53;;
43988;SDS011;54163;51.386;7.178;2022-07-06T09:45:57;444.43;;;85.03;;
43988;SDS011;54163;51.386;7.178;2022-07-06T09:48:24;438.07;;;83.37;;
43988;SDS011;54163;51.386;7.178;2022-07-06T09:50:53;542.53;;;111.30;;
43988;SDS011;54163;51.386;7.178;2022-07-06T09:53:21;441.03;;;86.57;;
43988;SDS011;54163;51.386;7.178;2022-07-06T09:55:51;401.03;;;92.20;;
43988;SDS011;54163;51.386;7.178;2022-07-06T09:58:20;537.30;;;105.67;;
43988;SDS011;54163;51.386;7.178;2022-07-06T10:00:47;426.90;;;93.60;;
43988;SDS011;54163;51.386;7.178;2022-07-06T10:03:16;464.27;;;89.33;;
43988;SDS011;54163;51.386;7.178;2022-07-06T10:05:43;581.60;;;126.93;;
43988;SDS011;54163;51.386;7.178;2022-07-06T10:08:13;469.73;;;94.73;;
43988;SDS011;54163;51.386;7.178;2022-07-06T10:10:41;556.37;;;118.30;;
43988;SDS011;54163;51.386;7.178;2022-07-06T10:13:10;437.87;;;82.87;;
43988;SDS011;54163;51.386;7.178;2022-07-06T10:15:38;538.70;;;114.10;;
43988;SDS011;54163;51.386;7.178;2022-07-06T10:18:06;453.47;;;93.17;;
43988;SDS011;54163;51.386;7.178;2022-07-06T10:20:35;543.13;;;108.13;;
43988;SDS011;54163;51.386;7.178;2022-07-06T10:23:04;468.83;;;95.77;;
43988;SDS011;54163;51.386;7.178;2022-07-06T10:25:33;532.77;;;106.03;;
43988;SDS011;54163;51.386;7.178;2022-07-06T10:28:01;529.17;;;102.73;;
43988;SDS011;54163;51.386;7.178;2022-07-06T10:30:30;446.37;;;87.03;;
43988;SDS011;54163;51.386;7.178;2022-07-06T10:32:58;529.20;;;105.93;;
43988;SDS011;54163;51.386;7.178;2022-07-06T10:35:25;453.83;;;113.70;;
43988;SDS011;54163;51.386;7.178;2022-07-06T10:38:03;527.23;;;102.67;;
43988;SDS011;54163;51.386;7.178;2022-07-06T10:40:32;542.33;;;112.70;;
43988;SDS011;54163;51.386;7.178;2022-07-06T10:43:17;434.90;;;83.30;;
43988;SDS011;54163;51.386;7.178;2022-07-06T10:45:51;571.50;;;126.53;;
43988;SDS011;54163;51.386;7.178;2022-07-06T10:48:22;525.50;;;103.67;;
43988;SDS011;54163;51.386;7.178;2022-07-06T10:50:51;548.73;;;123.13;;
43988;SDS011;54163;51.386;7.178;2022-07-06T10:53:23;442.13;;;86.87;;
43988;SDS011;54163;51.386;7.178;2022-07-06T10:55:52;483.13;;;99.63;;
43988;SDS011;54163;51.386;7.178;2022-07-06T10:58:34;542.23;;;111.73;;
43988;SDS011;54163;51.386;7.178;2022-07-06T11:01:04;541.03;;;110.97;;
43988;SDS011;54163;51.386;7.178;2022-07-06T11:03:39;542.53;;;109.83;;
43988;SDS011;54163;51.386;7.178;2022-07-06T11:06:08;449.23;;;89.77;;
43988;SDS011;54163;51.386;7.178;2022-07-06T11:08:41;450.87;;;90.63;;
43988;SDS011;54163;51.386;7.178;2022-07-06T11:11:12;448.70;;;89.23;;
43988;SDS011;54163;51.386;7.178;2022-07-06T11:13:42;532.97;;;107.80;;
43988;SDS011;54163;51.386;7.178;2022-07-06T11:16:21;544.47;;;110.97;;
43988;SDS011;54163;51.386;7.178;2022-07-06T11:19:02;527.80;;;104.47;;
43988;SDS011;54163;51.386;7.178;2022-07-06T11:21:33;396.70;;;79.40;;
43988;SDS011;54163;51.386;7.178;2022-07-06T11:24:03;440.27;;;84.67;;
43988;SDS011;54163;51.386;7.178;2022-07-06T11:26:31;438.37;;;84.73;;
43988;SDS011;54163;51.386;7.178;2022-07-06T11:28:58;481.27;;;96.50;;
43988;SDS011;54163;51.386;7.178;2022-07-06T11:31:28;468.97;;;93.20;;
43988;SDS011;54163;51.386;7.178;2022-07-06T11:33:55;529.43;;;106.20;;
43988;SDS011;54163;51.386;7.178;2022-07-06T11:36:22;548.57;;;114.97;;
43988;SDS011;54163;51.386;7.178;2022-07-06T11:38:49;484.53;;;96.07;;
43988;SDS011;54163;51.386;7.178;2022-07-06T11:41:17;440.83;;;84.87;;
43988;SDS011;54163;51.386;7.178;2022-07-06T11:43:44;445.43;;;86.80;;
43988;SDS011;54163;51.386;7.178;2022-07-06T11:46:22;466.27;;;92.30;;
43988;SDS011;54163;51.386;7.178;2022-07-06T11:48:53;530.43;;;106.27;;
43988;SDS011;54163;51.386;7.178;2022-07-06T11:51:21;456.10;;;94.00;;
43988;SDS011;54163;51.386;7.178;2022-07-06T11:53:50;551.07;;;115.23;;
43988;SDS011;54163;51.386;7.178;2022-07-06T11:56:18;441.63;;;85.80;;
43988;SDS011;54163;51.386;7.178;2022-07-06T11:58:48;490.47;;;101.87;;
43988;SDS011;54163;51.386;7.178;2022-07-06T12:01:16;473.60;;;100.13;;
43988;SDS011;54163;51.386;7.178;2022-07-06T12:03:44;569.47;;;135.60;;
43988;SDS011;54163;51.386;7.178;2022-07-06T12:06:14;467.63;;;94.00;;
43988;SDS011;54163;51.386;7.178;2022-07-06T12:08:44;458.50;;;95.73;;
43988;SDS011;54163;51.386;7.178;2022-07-06T12:11:16;553.30;;;117.63;;
43988;SDS011;54163;51.386;7.178;2022-07-06T12:13:46;559.07;;;122.77;;
43988;SDS011;54163;51.386;7.178;2022-07-06T12:16:14;542.20;;;111.63;;
43988;SDS011;54163;51.386;7.178;2022-07-06T12:18:42;559.47;;;122.80;;
43988;SDS011;54163;51.386;7.178;2022-07-06T12:21:10;449.90;;;90.13;;
43988;SDS011;54163;51.386;7.178;2022-07-06T12:23:44;470.87;;;99.50;;
43988;SDS011;54163;51.386;7.178;2022-07-06T12:26:12;556.63;;;119.07;;
43988;SDS011;54163;51.386;7.178;2022-07-06T12:28:40;453.70;;;94.93;;
43988;SDS011;54163;51.386;7.178;2022-07-06T12:31:07;472.20;;;97.97;;
43988;SDS011;54163;51.386;7.178;2022-07-06T12:33:35;564.83;;;124.50;;
43988;SDS011;54163;51.386;7.178;2022-07-06T12:36:09;544.83;;;111.23;;
43988;SDS011;54163;51.386;7.178;2022-07-06T12:38:40;473.20;;;98.33;;
43988;SDS011;54163;51.386;7.178;2022-07-06T12:41:29;551.67;;;117.57;;
43988;SDS011;54163;51.386;7.178;2022-07-06T12:44:02;470.83;;;97.40;;
43988;SDS011;54163;51.386;7.178;2022-07-06T12:46:32;483.07;;;106.73;;
43988;SDS011;54163;51.386;7.178;2022-07-06T12:49:02;568.20;;;129.67;;
43988;SDS011;54163;51.386;7.178;2022-07-06T12:51:57;552.27;;;121.30;;
43988;SDS011;54163;51.386;7.178;2022-07-06T12:54:27;456.20;;;99.63;;
43988;SDS011;54163;51.386;7.178;2022-07-06T12:57:06;562.30;;;124.40;;
43988;SDS011;54163;51.386;7.178;2022-07-06T12:59:36;552.37;;;116.17;;
43988;SDS011;54163;51.386;7.178;2022-07-06T13:02:05;465.63;;;100.63;;
43988;SDS011;54163;51.386;7.178;2022-07-06T13:04:33;557.83;;;124.40;;
43988;SDS011;54163;51.386;7.178;2022-07-06T13:07:00;570.53;;;129.27;;
43988;SDS011;54163;51.386;7.178;2022-07-06T13:09:29;569.60;;;131.83;;
43988;SDS011;54163;51.386;7.178;2022-07-06T13:11:56;467.37;;;102.53;;
43988;SDS011;54163;51.386;7.178;2022-07-06T13:14:24;559.60;;;117.93;;
43988;SDS011;54163;51.386;7.178;2022-07-06T13:16:50;555.97;;;121.73;;
43988;SDS011;54163;51.386;7.178;2022-07-06T13:19:19;560.30;;;125.27;;
43988;SDS011;54163;51.386;7.178;2022-07-06T13:21:46;561.33;;;128.70;;
43988;SDS011;54163;51.386;7.178;2022-07-06T13:24:13;560.53;;;123.07;;
43988;SDS011;54163;51.386;7.178;2022-07-06T13:26:41;507.87;;;116.40;;
43988;SDS011;54163;51.386;7.178;2022-07-06T13:29:08;558.67;;;126.90;;
43988;SDS011;54163;51.386;7.178;2022-07-06T13:31:37;579.13;;;137.60;;
43988;SDS011;54163;51.386;7.178;2022-07-06T13:34:05;562.40;;;123.53;;
43988;SDS011;54163;51.386;7.178;2022-07-06T13:36:33;564.27;;;130.37;;
43988;SDS011;54163;51.386;7.178;2022-07-06T13:39:01;573.53;;;137.87;;
43988;SDS011;54163;51.386;7.178;2022-07-06T13:41:28;561.87;;;128.33;;
43988;SDS011;54163;51.386;7.178;2022-07-06T13:43:57;506.20;;;115.30;;
43988;SDS011;54163;51.386;7.178;2022-07-06T13:46:25;563.40;;;127.43;;
43988;SDS011;54163;51.386;7.178;2022-07-06T13:48:53;560.53;;;125.83;;
43988;SDS011;54163;51.386;7.178;2022-07-06T13:51:22;570.03;;;131.40;;
43988;SDS011;54163;51.386;7.178;2022-07-06T13:53:49;578.30;;;139.47;;
43988;SDS011;54163;51.386;7.178;2022-07-06T13:56:16;579.57;;;140.33;;
43988;SDS011;54163;51.386;7.178;2022-07-06T13:58:43;471.17;;;107.07;;
43988;SDS011;54163;51.386;7.178;2022-07-06T14:01:12;565.70;;;128.27;;
43988;SDS011;54163;51.386;7.178;2022-07-06T14:03:39;484.63;;;123.33;;
43988;SDS011;54163;51.386;7.178;2022-07-06T14:06:06;490.70;;;113.20;;
43988;SDS011;54163;51.386;7.178;2022-07-06T14:08:33;578.40;;;140.60;;
43988;SDS011;54163;51.386;7.178;2022-07-06T14:11:01;491.60;;;118.13;;
43988;SDS011;54163;51.386;7.178;2022-07-06T14:13:29;558.67;;;125.97;;